Bookmark and Share
Track history (hours):
 

Koushinmaru No.5

Last reported at 2014-Apr-21 08:30 UTC. Time now 2014-Apr-24 09:28 UTC.
Position N 35°55' E 140°41'.

Length 75 m; draft 5 m.

Type: Cargo ship. MMSI: 431301703.

NotesDate/timePositionNaut miles runAvg speedWind from/ knotsBaromVisibWave heightAir tempDewpointWater temp
2014-Apr-21 08:30N 35°55' E 140°41'1 1.1
2014-Apr-21 07:29N 35°55' E 140°40'0 0.0
2014-Apr-21 05:32N 35°55' E 140°40'0 0.0
2014-Apr-21 03:22N 35°55' E 140°40'0 0.0
2014-Apr-21 01:17N 35°55' E 140°40'0 0.0
2014-Apr-21 00:32N 35°55' E 140°40'0 0.0
2014-Apr-20 13:21N 35°55' E 140°40'0 0.0
2014-Apr-19 18:12N 35°55' E 140°40'0 0.0
2014-Apr-19 07:33N 35°56' E 140°40'28 6.7
2014-Apr-19 03:25N 35°28' E 140°38'1210.7
2014-Apr-19 02:16N 35°17' E 140°30'21 9.8
2014-Apr-19 00:07N 35°02' E 140°13'610.7
2014-Apr-18 23:33N 34°58' E 140°06'1311.0
2014-Apr-18 22:24N 34°52' E 139°53'1310.9
2014-Apr-18 21:13N 34°49' E 139°38'  
2014-Apr-16 06:33N 34°15' E 135°02'1111.0
2014-Apr-16 05:32N 34°26' E 135°03'1111.3
2014-Apr-16 04:33N 34°37' E 135°01'0 0.0
2014-Apr-14 08:33N 34°37' E 135°02'1312.5
2014-Apr-14 07:33N 34°38' E 135°17'7 7.4
2014-Apr-14 06:33N 34°40' E 135°25'4 0.5
2014-Apr-13 22:34N 34°39' E 135°20'0 0.0
2014-Apr-13 11:05N 34°39' E 135°21'2 3.5
2014-Apr-13 10:33N 34°37' E 135°19'1111.0
2014-Apr-13 09:33N 34°28' E 135°12'1211.6
2014-Apr-13 08:31N 34°18' E 135°04'1111.3
2014-Apr-13 07:33N 34°07' E 135°03'287 9.1
2014-Apr-12 00:12N 35°26' E 140°39'1710.5
2014-Apr-11 22:33N 35°39' E 140°52'1210.1
2014-Apr-11 21:22N 35°51' E 140°50'911.1
2014-Apr-11 20:33N 35°58' E 140°43'  

Dump ship's entire track history

sailing weather and tide predictions

Koushinmaru No.5 — JL6695 — position and weather